Ellerbe, North Carolina
Current Conditions -  °F | °C
As of 8:15 PM on Saturday 22 Nov 2014 (Local Time) from KRCZ Reporting Station
Clear Clear  
Wind Chill: 41°   Ceiling: Unl
Heat Index: 41°   Visibility: 10mi
Dew Point: 28°   Wind: 0mph
Humidity: 60%   Direction: NA
Pressure: 30.35"   Gusts: NA
Location:  35.07°N, 79.76°W
Report Text: KRCZ 230115Z AUTO 00000KT 10SM CLR 05/M02 A3035 RMK AO2 T00511022
Loading
Personal Weather Stations






























Interactive Weather Map New forecast layout! Learn more

10-Day Weather Forecast

Advertisements
Track Severe Weather on mobile